createdAt,value
2023-10-29T00:02:13.232Z,2.65
2023-10-29T00:04:40.541Z,2.78
2023-10-29T00:07:07.725Z,2.75
2023-10-29T00:09:35.128Z,2.85
2023-10-29T00:12:02.403Z,2.88
2023-10-29T00:14:30.916Z,2.80
2023-10-29T00:16:58.887Z,3.25
2023-10-29T00:19:26.155Z,3.22
2023-10-29T00:21:53.303Z,2.92
2023-10-29T00:24:21.005Z,3.03
2023-10-29T00:26:48.192Z,2.70
2023-10-29T00:29:15.431Z,2.75
2023-10-29T00:31:43.091Z,2.85
2023-10-29T00:34:10.354Z,3.25
2023-10-29T00:36:37.642Z,3.20
2023-10-29T00:39:04.977Z,2.72
2023-10-29T00:41:32.728Z,3.00
2023-10-29T00:43:59.906Z,3.13
2023-10-29T00:46:27.366Z,3.17
2023-10-29T00:48:54.728Z,3.05
2023-10-29T00:51:22.047Z,2.92
2023-10-29T00:53:49.487Z,3.28
2023-10-29T00:56:20.050Z,3.50
2023-10-29T00:58:47.749Z,3.65
2023-10-29T01:01:15.097Z,3.22
2023-10-29T01:03:42.735Z,3.97
2023-10-29T01:06:11.999Z,4.68
2023-10-29T01:08:39.655Z,4.25
2023-10-29T01:11:08.360Z,4.18
2023-10-29T01:13:35.774Z,3.20
2023-10-29T01:16:06.335Z,3.67
2023-10-29T01:18:33.829Z,3.35
2023-10-29T01:21:01.601Z,3.53
2023-10-29T01:23:30.294Z,3.70
2023-10-29T01:26:01.460Z,3.35
2023-10-29T01:28:28.979Z,3.40
2023-10-29T01:30:56.553Z,4.13
2023-10-29T01:33:23.753Z,3.47
2023-10-29T01:35:51.253Z,3.70
2023-10-29T01:38:18.599Z,3.47
2023-10-29T01:40:45.714Z,3.10
2023-10-29T01:43:12.962Z,3.47
2023-10-29T01:45:40.113Z,3.53
2023-10-29T01:48:07.366Z,3.25
2023-10-29T01:50:34.708Z,3.20
2023-10-29T01:53:01.857Z,3.95
2023-10-29T01:55:29.215Z,3.40
2023-10-29T01:57:56.759Z,2.90
2023-10-29T02:00:23.828Z,3.40
2023-10-29T02:02:51.568Z,3.20
2023-10-29T02:05:18.880Z,3.28
2023-10-29T02:07:46.611Z,2.78
2023-10-29T02:10:13.696Z,3.38
2023-10-29T02:12:40.888Z,2.80
2023-10-29T02:15:09.011Z,3.30
2023-10-29T02:17:37.641Z,3.22
2023-10-29T02:20:06.833Z,3.38
2023-10-29T02:22:34.094Z,2.40
2023-10-29T02:25:01.254Z,3.22
2023-10-29T02:27:28.391Z,3.03
2023-10-29T02:29:55.784Z,3.05
2023-10-29T02:32:23.889Z,3.10
2023-10-29T02:34:51.143Z,4.03
2023-10-29T02:37:18.411Z,3.28
2023-10-29T02:39:46.516Z,3.10
2023-10-29T02:42:18.178Z,2.88
2023-10-29T02:44:45.671Z,2.80
2023-10-29T02:47:13.132Z,3.22
2023-10-29T02:49:41.068Z,2.83
2023-10-29T02:52:08.253Z,3.03
2023-10-29T02:54:35.512Z,2.92
2023-10-29T02:57:04.212Z,3.28
2023-10-29T02:59:33.047Z,3.17
2023-10-29T03:02:00.155Z,3.22
2023-10-29T03:04:27.392Z,3.10
2023-10-29T03:06:54.548Z,3.38
2023-10-29T03:09:21.815Z,3.00
2023-10-29T03:11:49.391Z,3.55
2023-10-29T03:14:16.922Z,2.97
2023-10-29T03:16:44.166Z,3.47
2023-10-29T03:19:11.336Z,3.53
2023-10-29T03:21:38.569Z,3.42
2023-10-29T03:24:06.170Z,3.38
2023-10-29T03:26:33.421Z,2.90
2023-10-29T03:29:00.648Z,4.15
2023-10-29T03:31:27.792Z,3.15
2023-10-29T03:33:55.115Z,3.53
2023-10-29T03:36:22.331Z,3.08
2023-10-29T03:38:49.724Z,2.83
2023-10-29T03:41:21.779Z,3.70
2023-10-29T03:43:49.916Z,3.70
2023-10-29T03:46:17.466Z,2.50
2023-10-29T03:48:46.100Z,3.17
2023-10-29T03:51:14.297Z,3.20
2023-10-29T03:53:42.011Z,3.20
2023-10-29T03:56:09.955Z,3.20
2023-10-29T03:58:37.317Z,2.50
2023-10-29T04:01:04.824Z,3.38
2023-10-29T04:03:32.413Z,2.70
2023-10-29T04:06:00.024Z,2.63
2023-10-29T04:08:27.267Z,2.70
2023-10-29T04:10:54.453Z,2.75
2023-10-29T04:13:21.856Z,2.90
2023-10-29T04:15:49.331Z,3.05
2023-10-29T04:18:16.813Z,2.78
2023-10-29T04:20:44.027Z,3.15
2023-10-29T04:23:11.383Z,2.35
2023-10-29T04:25:38.537Z,2.88
2023-10-29T04:28:05.860Z,2.90
2023-10-29T04:30:33.200Z,3.25
2023-10-29T04:33:00.483Z,3.60
2023-10-29T04:35:27.838Z,3.88
2023-10-29T04:37:55.120Z,3.67
2023-10-29T04:40:22.319Z,3.70
2023-10-29T04:42:49.590Z,3.63
2023-10-29T04:45:16.771Z,3.28
2023-10-29T04:47:44.256Z,3.78
2023-10-29T04:50:11.690Z,3.20
2023-10-29T04:52:39.598Z,3.00
2023-10-29T04:55:07.131Z,2.97
2023-10-29T04:57:34.470Z,2.85
2023-10-29T05:00:02.092Z,3.08
2023-10-29T05:02:30.615Z,2.60
2023-10-29T05:04:58.172Z,3.33
2023-10-29T05:07:25.369Z,2.90
2023-10-29T05:09:52.684Z,3.03
2023-10-29T05:12:19.790Z,2.97
2023-10-29T05:14:52.125Z,3.40
2023-10-29T05:17:19.411Z,3.10
2023-10-29T05:19:46.812Z,3.55
2023-10-29T05:22:14.046Z,3.08
2023-10-29T05:24:41.303Z,3.28
2023-10-29T05:27:08.404Z,2.80
2023-10-29T05:29:36.222Z,3.00
2023-10-29T05:32:03.604Z,3.38
2023-10-29T05:34:30.760Z,3.30
2023-10-29T05:36:57.951Z,2.72
2023-10-29T05:39:25.087Z,3.33
2023-10-29T05:41:52.337Z,3.22
2023-10-29T05:44:19.861Z,2.58
2023-10-29T05:46:46.979Z,2.70
2023-10-29T05:49:14.256Z,2.63
2023-10-29T05:51:41.382Z,2.95
2023-10-29T05:54:08.569Z,2.50
2023-10-29T05:56:35.816Z,2.92
2023-10-29T05:59:03.843Z,2.70
2023-10-29T06:01:31.119Z,2.60
2023-10-29T06:03:58.442Z,3.35
2023-10-29T06:06:25.718Z,2.35
2023-10-29T06:08:52.898Z,3.22
2023-10-29T06:11:20.386Z,3.20
2023-10-29T06:13:47.845Z,2.30
2023-10-29T06:16:15.402Z,2.30
2023-10-29T06:18:42.815Z,2.13
2023-10-29T06:21:10.095Z,2.13
2023-10-29T06:23:38.536Z,2.88
2023-10-29T06:26:09.965Z,2.97
2023-10-29T06:28:37.262Z,2.80
2023-10-29T06:31:05.265Z,2.65
2023-10-29T06:33:32.668Z,2.67
2023-10-29T06:36:00.401Z,2.90
2023-10-29T06:38:27.569Z,3.28
2023-10-29T06:40:55.216Z,3.35
2023-10-29T06:43:22.704Z,3.28
2023-10-29T06:45:49.998Z,3.00
2023-10-29T06:48:17.657Z,2.58
2023-10-29T06:50:45.090Z,2.40
2023-10-29T06:53:12.227Z,3.17
2023-10-29T06:55:41.463Z,2.97
2023-10-29T06:58:08.737Z,3.40
2023-10-29T07:00:35.918Z,3.33
2023-10-29T07:03:04.072Z,4.13
2023-10-29T07:05:31.564Z,4.38
2023-10-29T07:08:00.400Z,4.38
2023-10-29T07:10:28.285Z,5.07
2023-10-29T07:12:55.465Z,4.40
2023-10-29T07:15:22.594Z,4.97
2023-10-29T07:17:49.899Z,4.72
2023-10-29T07:20:17.152Z,4.97
2023-10-29T07:22:44.547Z,4.97
2023-10-29T07:25:12.057Z,4.38
2023-10-29T07:27:39.526Z,3.88
2023-10-29T07:30:07.709Z,3.80
2023-10-29T07:32:35.782Z,4.30
2023-10-29T07:35:03.145Z,4.30
2023-10-29T07:37:30.303Z,3.53
2023-10-29T07:39:57.590Z,4.20
2023-10-29T07:42:26.121Z,4.72
2023-10-29T07:44:55.055Z,4.15
2023-10-29T07:47:22.382Z,3.60
2023-10-29T07:49:49.604Z,3.85
2023-10-29T07:52:17.325Z,4.13
2023-10-29T07:54:44.753Z,3.53
2023-10-29T07:57:12.015Z,4.07
2023-10-29T07:59:39.261Z,3.20
2023-10-29T08:02:07.492Z,2.85
2023-10-29T08:04:34.781Z,2.40
2023-10-29T08:07:01.926Z,3.50
2023-10-29T08:09:29.218Z,3.70
2023-10-29T08:11:56.447Z,3.25
2023-10-29T08:14:23.863Z,2.30
2023-10-29T08:16:50.957Z,2.20
2023-10-29T08:19:18.180Z,2.10
2023-10-29T08:21:45.360Z,2.35
2023-10-29T08:24:12.729Z,2.17
2023-10-29T08:26:40.008Z,2.50
2023-10-29T08:29:07.651Z,2.83
2023-10-29T08:31:34.827Z,2.60
2023-10-29T08:34:02.164Z,2.15
2023-10-29T08:36:29.952Z,2.42
2023-10-29T08:38:57.264Z,1.95
2023-10-29T08:41:24.434Z,2.28
2023-10-29T08:43:53.516Z,2.33
2023-10-29T08:46:21.202Z,2.33
2023-10-29T08:48:48.447Z,1.90
2023-10-29T08:51:17.166Z,2.25
2023-10-29T08:53:44.458Z,2.50
2023-10-29T08:56:11.704Z,2.40
2023-10-29T08:58:39.501Z,2.60
2023-10-29T09:01:13.911Z,3.05
2023-10-29T09:03:41.661Z,2.25
2023-10-29T09:06:09.181Z,1.63
2023-10-29T09:08:36.926Z,2.70
2023-10-29T09:11:04.311Z,2.42
2023-10-29T09:13:31.618Z,2.40
2023-10-29T09:15:59.390Z,2.45
2023-10-29T09:18:27.045Z,2.30
2023-10-29T09:20:54.392Z,2.38
2023-10-29T09:23:21.685Z,2.60
2023-10-29T09:25:49.154Z,2.58
2023-10-29T09:28:16.740Z,2.35
2023-10-29T09:30:44.141Z,2.28
2023-10-29T09:33:14.457Z,2.00
2023-10-29T09:35:41.848Z,2.53
2023-10-29T09:38:09.216Z,2.58
2023-10-29T09:40:39.953Z,2.67
2023-10-29T09:43:10.499Z,2.35
2023-10-29T09:45:50.184Z,2.17
2023-10-29T09:48:17.667Z,1.90
2023-10-29T09:50:45.916Z,2.20
2023-10-29T09:53:16.093Z,2.15
2023-10-29T09:55:43.533Z,2.38
2023-10-29T09:58:11.099Z,2.60
2023-10-29T10:00:38.703Z,2.50
2023-10-29T10:03:05.971Z,2.60
2023-10-29T10:05:34.386Z,2.80
2023-10-29T10:08:01.759Z,2.20
2023-10-29T10:10:38.101Z,2.40
2023-10-29T10:13:05.915Z,2.17
2023-10-29T10:15:33.795Z,2.92
2023-10-29T10:18:03.301Z,2.67
2023-10-29T10:20:30.532Z,2.53
2023-10-29T10:23:12.636Z,2.85
2023-10-29T10:25:39.990Z,2.40
2023-10-29T10:28:07.852Z,2.25
2023-10-29T10:30:39.038Z,2.55
2023-10-29T10:33:17.049Z,2.75
2023-10-29T10:35:58.059Z,2.60
2023-10-29T10:38:25.235Z,2.55
2023-10-29T10:41:02.637Z,2.20
2023-10-29T10:43:29.950Z,2.58
2023-10-29T10:45:59.864Z,2.17
2023-10-29T10:48:28.644Z,2.60
2023-10-29T10:50:57.484Z,2.63
2023-10-29T10:53:26.842Z,2.20
2023-10-29T10:56:02.322Z,2.45
2023-10-29T10:58:31.032Z,2.33
2023-10-29T11:01:00.468Z,2.63
2023-10-29T11:03:33.360Z,2.60
2023-10-29T11:06:01.512Z,2.60
2023-10-29T11:08:29.234Z,2.25
2023-10-29T11:10:58.779Z,2.22
2023-10-29T11:13:30.228Z,2.35
2023-10-29T11:15:57.622Z,2.30
2023-10-29T11:18:34.038Z,2.58
2023-10-29T11:21:04.662Z,2.17
2023-10-29T11:23:33.898Z,2.20
2023-10-29T11:26:29.375Z,2.50
2023-10-29T11:28:56.845Z,2.17
2023-10-29T11:31:26.531Z,2.47
2023-10-29T11:33:57.036Z,2.70
2023-10-29T11:36:35.911Z,2.60
2023-10-29T11:39:16.265Z,2.35
2023-10-29T11:41:47.616Z,2.75
2023-10-29T11:44:22.851Z,2.70
2023-10-29T11:46:59.287Z,2.00
2023-10-29T11:49:31.966Z,2.40
2023-10-29T11:52:03.302Z,2.55
2023-10-29T11:54:33.962Z,2.13
2023-10-29T11:57:01.899Z,2.22
2023-10-29T11:59:29.141Z,2.95
2023-10-29T12:01:56.370Z,2.55
2023-10-29T12:04:32.850Z,2.20
2023-10-29T12:07:00.891Z,2.33
2023-10-29T12:09:33.364Z,1.90
2023-10-29T12:12:10.154Z,1.83
2023-10-29T12:14:48.766Z,2.22
2023-10-29T12:17:16.403Z,2.65
2023-10-29T12:19:46.264Z,2.60
2023-10-29T12:22:22.500Z,1.85
2023-10-29T12:24:55.105Z,2.10
2023-10-29T12:27:24.211Z,1.98
2023-10-29T12:29:52.306Z,2.10
2023-10-29T12:32:24.545Z,2.40
2023-10-29T12:34:53.872Z,2.28
2023-10-29T12:37:28.483Z,2.42
2023-10-29T12:39:57.942Z,1.75
2023-10-29T12:42:54.337Z,2.08
2023-10-29T12:45:29.953Z,1.80
2023-10-29T12:48:23.614Z,2.10
2023-10-29T12:50:54.462Z,2.50
2023-10-29T12:53:29.888Z,1.98
2023-10-29T12:55:58.965Z,2.90
2023-10-29T12:58:27.615Z,3.05
2023-10-29T13:00:58.766Z,2.85
2023-10-29T13:03:26.305Z,2.90
2023-10-29T13:05:55.968Z,2.40
2023-10-29T13:08:26.910Z,2.20
2023-10-29T13:10:54.504Z,2.60
2023-10-29T13:13:25.085Z,2.00
2023-10-29T13:15:53.182Z,2.80
2023-10-29T13:18:20.799Z,6.28
2023-10-29T13:20:49.076Z,3.72
2023-10-29T13:23:16.346Z,2.38
2023-10-29T13:25:43.562Z,1.98
2023-10-29T13:28:11.521Z,1.75
2023-10-29T13:30:38.738Z,2.30
2023-10-29T13:33:06.159Z,2.03
2023-10-29T13:35:33.427Z,2.05
2023-10-29T13:38:00.701Z,1.95
2023-10-29T13:40:27.866Z,2.25
2023-10-29T13:42:55.152Z,1.92
2023-10-29T13:45:22.421Z,2.15
2023-10-29T13:47:49.816Z,1.60
2023-10-29T13:50:16.977Z,2.08
2023-10-29T13:52:44.483Z,1.80
2023-10-29T13:55:11.739Z,1.67
2023-10-29T13:57:39.144Z,1.58
2023-10-29T14:00:10.032Z,1.70
2023-10-29T14:02:40.077Z,2.05
2023-10-29T14:05:08.404Z,2.20
2023-10-29T14:07:35.652Z,2.25
2023-10-29T14:10:02.895Z,1.65
2023-10-29T14:12:30.113Z,2.10
2023-10-29T14:14:58.197Z,2.10
2023-10-29T14:17:25.787Z,1.92
2023-10-29T14:19:53.085Z,1.98
2023-10-29T14:22:20.424Z,2.10
2023-10-29T14:24:48.852Z,1.70
2023-10-29T14:27:16.111Z,1.85
2023-10-29T14:29:43.487Z,1.98
2023-10-29T14:32:11.748Z,1.92
2023-10-29T14:34:39.041Z,1.90
2023-10-29T14:37:06.471Z,1.65
2023-10-29T14:39:33.658Z,2.05
2023-10-29T14:42:00.876Z,2.83
2023-10-29T14:44:28.691Z,2.60
2023-10-29T14:46:57.034Z,2.28
2023-10-29T14:49:25.458Z,1.95
2023-10-29T14:51:52.618Z,2.00
2023-10-29T14:54:20.230Z,2.25
2023-10-29T14:56:48.280Z,2.92
2023-10-29T14:59:15.408Z,2.25
2023-10-29T15:01:42.735Z,2.10
2023-10-29T15:04:09.898Z,1.90
2023-10-29T15:06:38.527Z,1.92
2023-10-29T15:09:06.988Z,2.00
2023-10-29T15:11:37.345Z,1.70
2023-10-29T15:14:06.737Z,2.25
2023-10-29T15:16:34.836Z,1.80
2023-10-29T15:19:05.793Z,1.88
2023-10-29T15:21:34.506Z,1.98
2023-10-29T15:24:01.996Z,2.00
2023-10-29T15:26:29.664Z,1.80
2023-10-29T15:28:56.910Z,1.90
2023-10-29T15:31:24.262Z,1.92
2023-10-29T15:33:51.514Z,2.22
2023-10-29T15:36:19.465Z,2.00
2023-10-29T15:38:47.009Z,2.00
2023-10-29T15:41:14.861Z,2.10
2023-10-29T15:43:42.275Z,1.73
2023-10-29T15:46:10.418Z,2.17
2023-10-29T15:48:40.863Z,2.33
2023-10-29T15:51:10.064Z,2.10
2023-10-29T15:53:38.245Z,2.90
2023-10-29T15:56:09.952Z,1.90
2023-10-29T15:58:37.673Z,2.10
2023-10-29T16:01:05.204Z,2.20
2023-10-29T16:03:32.701Z,1.90
2023-10-29T16:06:08.315Z,2.13
2023-10-29T16:08:39.812Z,2.30
2023-10-29T16:11:08.247Z,2.15
2023-10-29T16:13:35.648Z,2.72
2023-10-29T16:16:03.495Z,2.10
2023-10-29T16:18:31.091Z,2.17
2023-10-29T16:21:01.622Z,2.00
2023-10-29T16:23:29.385Z,2.05
2023-10-29T16:25:56.619Z,2.00
2023-10-29T16:28:23.886Z,1.80
2023-10-29T16:30:51.222Z,1.92
2023-10-29T16:33:18.568Z,2.00
2023-10-29T16:35:45.946Z,2.20
2023-10-29T16:38:13.227Z,1.85
2023-10-29T16:40:48.652Z,2.33
2023-10-29T16:43:17.025Z,1.80
2023-10-29T16:45:45.899Z,2.08
2023-10-29T16:48:13.414Z,2.38
2023-10-29T16:50:56.365Z,1.98
2023-10-29T16:53:28.598Z,3.65
2023-10-29T16:56:02.354Z,2.40
2023-10-29T16:58:29.665Z,3.35
2023-10-29T17:00:56.809Z,2.53
2023-10-29T17:03:24.074Z,2.40
2023-10-29T17:05:51.543Z,2.88
2023-10-29T17:08:18.698Z,3.10
2023-10-29T17:10:48.927Z,3.75
2023-10-29T17:13:17.949Z,3.50
2023-10-29T17:15:45.242Z,4.03
2023-10-29T17:18:12.582Z,3.75
2023-10-29T17:20:39.961Z,3.47
2023-10-29T17:23:07.056Z,4.00
2023-10-29T17:25:37.604Z,3.65
2023-10-29T17:28:04.961Z,3.65
2023-10-29T17:30:34.155Z,3.53
2023-10-29T17:33:01.379Z,4.47
2023-10-29T17:35:31.992Z,4.82
2023-10-29T17:37:59.444Z,4.88
2023-10-29T17:40:27.024Z,6.40
2023-10-29T17:42:54.406Z,6.25
2023-10-29T17:45:21.795Z,6.85
2023-10-29T17:47:50.439Z,6.55
2023-10-29T17:50:17.663Z,5.80
2023-10-29T17:52:45.115Z,4.88
2023-10-29T17:55:12.327Z,4.63
2023-10-29T17:57:39.442Z,5.20
2023-10-29T18:00:08.801Z,7.95
2023-10-29T18:02:40.463Z,4.53
2023-10-29T18:05:10.911Z,3.53
2023-10-29T18:07:38.184Z,3.67
2023-10-29T18:10:05.951Z,5.20
2023-10-29T18:12:33.649Z,5.30
2023-10-29T18:15:01.140Z,6.28
2023-10-29T18:17:28.601Z,5.70
2023-10-29T18:19:55.834Z,5.60
2023-10-29T18:22:23.145Z,4.50
2023-10-29T18:24:50.665Z,3.78
2023-10-29T18:27:18.009Z,3.38
2023-10-29T18:29:45.208Z,2.72
2023-10-29T18:32:12.447Z,2.97
2023-10-29T18:34:39.710Z,3.10
2023-10-29T18:37:07.007Z,3.22
2023-10-29T18:39:34.375Z,3.00
2023-10-29T18:42:01.936Z,3.03
2023-10-29T18:44:31.597Z,2.60
2023-10-29T18:47:00.060Z,3.05
2023-10-29T18:49:28.797Z,3.05
2023-10-29T18:51:59.165Z,3.50
2023-10-29T18:54:26.667Z,2.72
2023-10-29T18:56:54.183Z,2.80
2023-10-29T18:59:24.799Z,2.85
2023-10-29T19:01:52.151Z,3.00
2023-10-29T19:04:19.468Z,3.00
2023-10-29T19:06:46.767Z,3.45
2023-10-29T19:09:14.617Z,3.65
2023-10-29T19:11:41.912Z,3.33
2023-10-29T19:14:09.113Z,4.07
2023-10-29T19:16:36.448Z,4.05
2023-10-29T19:19:04.205Z,4.75
2023-10-29T19:21:31.666Z,4.00
2023-10-29T19:23:58.990Z,3.65
2023-10-29T19:26:26.225Z,3.53
2023-10-29T19:28:53.510Z,3.67
2023-10-29T19:31:27.475Z,3.45
2023-10-29T19:33:55.693Z,4.13
2023-10-29T19:36:23.426Z,4.22
2023-10-29T19:38:50.695Z,3.20
2023-10-29T19:41:17.996Z,4.28
2023-10-29T19:43:45.731Z,3.65
2023-10-29T19:46:18.772Z,3.38
2023-10-29T19:48:46.186Z,3.40
2023-10-29T19:51:13.550Z,3.47
2023-10-29T19:53:40.868Z,3.85
2023-10-29T19:56:09.322Z,5.28
2023-10-29T19:58:36.772Z,4.30
2023-10-29T20:01:08.961Z,3.90
2023-10-29T20:03:36.994Z,4.03
2023-10-29T20:06:12.466Z,4.10
2023-10-29T20:08:41.762Z,4.35
2023-10-29T20:11:10.899Z,4.03
2023-10-29T20:13:44.181Z,4.15
2023-10-29T20:16:11.874Z,4.45
2023-10-29T20:18:39.475Z,4.40
2023-10-29T20:21:12.429Z,4.20
2023-10-29T20:23:39.931Z,3.72
2023-10-29T20:26:18.718Z,3.88
2023-10-29T20:28:49.688Z,3.25
2023-10-29T20:31:18.003Z,3.20
2023-10-29T20:33:45.840Z,3.47
2023-10-29T20:36:14.297Z,3.58
2023-10-29T20:38:41.789Z,3.33
2023-10-29T20:41:11.804Z,3.75
2023-10-29T20:43:39.954Z,4.03
2023-10-29T20:46:10.349Z,3.78
2023-10-29T20:48:38.501Z,3.50
2023-10-29T20:51:06.151Z,3.28
2023-10-29T20:53:33.466Z,3.22
2023-10-29T20:56:07.141Z,3.30
2023-10-29T20:58:35.648Z,3.63
2023-10-29T21:01:04.283Z,3.30
2023-10-29T21:03:31.759Z,3.25
2023-10-29T21:05:59.802Z,3.75
2023-10-29T21:08:27.542Z,3.00
2023-10-29T21:11:14.833Z,2.80
2023-10-29T21:13:47.256Z,3.33
2023-10-29T21:16:21.463Z,3.47
2023-10-29T21:18:50.303Z,2.97
2023-10-29T21:21:17.709Z,3.10
2023-10-29T21:23:45.070Z,3.40
2023-10-29T21:26:12.389Z,3.45
2023-10-29T21:28:40.031Z,3.20
2023-10-29T21:31:08.414Z,3.30
2023-10-29T21:33:36.249Z,3.53
2023-10-29T21:36:06.862Z,3.53
2023-10-29T21:38:34.201Z,3.60
2023-10-29T21:41:06.059Z,3.58
2023-10-29T21:43:35.563Z,4.15
2023-10-29T21:46:08.097Z,3.67
2023-10-29T21:48:37.499Z,4.18
2023-10-29T21:51:09.005Z,3.53
2023-10-29T21:53:36.309Z,3.08
2023-10-29T21:56:06.397Z,3.38
2023-10-29T21:58:34.723Z,3.25
2023-10-29T22:01:02.621Z,3.75
2023-10-29T22:03:31.179Z,3.13
2023-10-29T22:06:05.833Z,2.83
2023-10-29T22:08:34.307Z,3.30
2023-10-29T22:11:02.224Z,3.28
2023-10-29T22:13:31.018Z,3.40
2023-10-29T22:16:18.959Z,3.33
2023-10-29T22:18:46.269Z,2.70
2023-10-29T22:21:14.095Z,2.90
2023-10-29T22:23:42.220Z,3.17
2023-10-29T22:26:09.788Z,2.78
2023-10-29T22:28:38.293Z,2.83
2023-10-29T22:31:06.349Z,2.90
2023-10-29T22:33:35.010Z,3.15
2023-10-29T22:36:04.720Z,2.90
2023-10-29T22:38:32.080Z,3.15
2023-10-29T22:41:10.772Z,2.90
2023-10-29T22:43:38.140Z,3.08
2023-10-29T22:46:05.726Z,2.70
2023-10-29T22:48:34.051Z,2.90
2023-10-29T22:51:02.469Z,2.88
2023-10-29T22:53:29.731Z,2.67
2023-10-29T22:56:03.263Z,3.15
2023-10-29T22:58:30.673Z,2.90
2023-10-29T23:00:58.910Z,2.75
2023-10-29T23:03:27.654Z,3.22
2023-10-29T23:05:55.250Z,2.90
2023-10-29T23:08:22.461Z,3.00
2023-10-29T23:10:49.717Z,3.00
2023-10-29T23:13:17.418Z,2.88
2023-10-29T23:15:44.710Z,2.50
2023-10-29T23:18:12.121Z,3.00
2023-10-29T23:20:39.418Z,2.88
2023-10-29T23:23:08.396Z,2.63
2023-10-29T23:25:35.481Z,2.90
2023-10-29T23:28:02.790Z,2.92
2023-10-29T23:30:31.101Z,2.78
2023-10-29T23:32:58.363Z,2.42
2023-10-29T23:35:26.123Z,2.88
2023-10-29T23:37:54.519Z,2.65
2023-10-29T23:40:24.484Z,2.97
2023-10-29T23:42:51.703Z,2.40
2023-10-29T23:45:18.996Z,2.92
2023-10-29T23:47:46.383Z,2.80
2023-10-29T23:50:13.627Z,2.50
2023-10-29T23:52:41.103Z,2.90
2023-10-29T23:55:08.804Z,3.03
2023-10-29T23:57:36.166Z,3.10
